sensor_id;sensor_type;location;lat;lon;timestamp;pressure;altitude;pressure_sealevel;temperature;humidity
75991;BME280;64673;52.276;10.560;2023-11-19T00:02:07;100183.63;;;5.08;100.00
75991;BME280;64673;52.276;10.560;2023-11-19T00:04:36;100175.69;;;5.13;100.00
75991;BME280;64673;52.276;10.560;2023-11-19T00:07:02;100164.66;;;5.09;100.00
75991;BME280;64673;52.276;10.560;2023-11-19T00:09:29;100170.50;;;5.06;100.00
75991;BME280;64673;52.276;10.560;2023-11-19T00:11:55;100174.00;;;5.07;100.00
75991;BME280;64673;52.276;10.560;2023-11-19T00:14:20;100169.19;;;5.09;100.00
75991;BME280;64673;52.276;10.560;2023-11-19T00:16:46;100161.75;;;5.11;100.00
75991;BME280;64673;52.276;10.560;2023-11-19T00:19:11;100153.97;;;5.09;100.00
75991;BME280;64673;52.276;10.560;2023-11-19T00:21:37;100151.84;;;5.11;100.00
75991;BME280;64673;52.276;10.560;2023-11-19T00:24:02;100144.41;;;5.13;100.00
75991;BME280;64673;52.276;10.560;2023-11-19T00:26:27;100135.72;;;5.23;100.00
75991;BME280;64673;52.276;10.560;2023-11-19T00:28:53;100137.59;;;5.23;100.00
75991;BME280;64673;52.276;10.560;2023-11-19T00:31:18;100135.50;;;5.25;100.00
75991;BME280;64673;52.276;10.560;2023-11-19T00:33:43;100130.16;;;5.25;100.00
75991;BME280;64673;52.276;10.560;2023-11-19T00:36:09;100122.75;;;5.32;100.00
75991;BME280;64673;52.276;10.560;2023-11-19T00:38:34;100096.78;;;5.27;100.00
75991;BME280;64673;52.276;10.560;2023-11-19T00:40:59;100096.59;;;5.34;100.00
75991;BME280;64673;52.276;10.560;2023-11-19T00:43:25;100092.84;;;5.35;100.00
75991;BME280;64673;52.276;10.560;2023-11-19T00:45:51;100080.53;;;5.34;100.00
75991;BME280;64673;52.276;10.560;2023-11-19T00:48:16;100071.94;;;5.32;100.00
75991;BME280;64673;52.276;10.560;2023-11-19T00:50:42;100064.44;;;5.29;100.00
75991;BME280;64673;52.276;10.560;2023-11-19T00:53:09;100066.19;;;5.40;100.00
75991;BME280;64673;52.276;10.560;2023-11-19T00:55:35;100059.78;;;5.41;100.00
75991;BME280;64673;52.276;10.560;2023-11-19T00:58:00;100034.03;;;5.35;100.00
75991;BME280;64673;52.276;10.560;2023-11-19T01:00:25;100049.16;;;5.46;100.00
75991;BME280;64673;52.276;10.560;2023-11-19T01:02:52;100031.97;;;5.42;100.00
75991;BME280;64673;52.276;10.560;2023-11-19T01:05:18;100037.97;;;5.49;100.00
75991;BME280;64673;52.276;10.560;2023-11-19T01:07:47;100030.44;;;5.46;100.00
75991;BME280;64673;52.276;10.560;2023-11-19T01:10:12;100040.41;;;5.50;100.00
75991;BME280;64673;52.276;10.560;2023-11-19T01:12:38;100046.59;;;5.56;100.00
75991;BME280;64673;52.276;10.560;2023-11-19T01:15:04;100049.78;;;5.53;100.00
75991;BME280;64673;52.276;10.560;2023-11-19T01:17:30;100034.28;;;5.55;100.00
75991;BME280;64673;52.276;10.560;2023-11-19T01:19:57;100026.81;;;5.57;100.00
75991;BME280;64673;52.276;10.560;2023-11-19T01:22:22;100030.34;;;5.63;100.00
75991;BME280;64673;52.276;10.560;2023-11-19T01:24:48;100021.97;;;5.54;100.00
75991;BME280;64673;52.276;10.560;2023-11-19T01:27:13;100022.22;;;5.52;100.00
75991;BME280;64673;52.276;10.560;2023-11-19T01:29:39;100010.53;;;5.59;100.00
75991;BME280;64673;52.276;10.560;2023-11-19T01:32:04;100013.69;;;5.56;100.00
75991;BME280;64673;52.276;10.560;2023-11-19T01:34:30;100002.78;;;5.62;100.00
75991;BME280;64673;52.276;10.560;2023-11-19T01:36:55;99989.38;;;5.57;100.00
75991;BME280;64673;52.276;10.560;2023-11-19T01:39:21;99980.09;;;5.65;100.00
75991;BME280;64673;52.276;10.560;2023-11-19T01:41:46;99976.13;;;5.67;100.00
75991;BME280;64673;52.276;10.560;2023-11-19T01:44:12;99968.91;;;5.68;100.00
75991;BME280;64673;52.276;10.560;2023-11-19T01:46:38;99967.28;;;5.67;100.00
75991;BME280;64673;52.276;10.560;2023-11-19T01:49:05;99970.06;;;5.77;100.00
75991;BME280;64673;52.276;10.560;2023-11-19T01:51:31;99958.22;;;5.73;100.00
75991;BME280;64673;52.276;10.560;2023-11-19T01:53:57;99952.63;;;5.74;100.00
75991;BME280;64673;52.276;10.560;2023-11-19T01:56:24;99957.00;;;5.80;100.00
75991;BME280;64673;52.276;10.560;2023-11-19T01:58:50;99942.28;;;5.83;100.00
75991;BME280;64673;52.276;10.560;2023-11-19T02:01:16;99943.63;;;5.80;100.00
75991;BME280;64673;52.276;10.560;2023-11-19T02:03:42;99927.56;;;5.80;100.00
75991;BME280;64673;52.276;10.560;2023-11-19T02:06:07;99912.56;;;5.79;100.00
75991;BME280;64673;52.276;10.560;2023-11-19T02:08:35;99909.38;;;5.82;100.00
75991;BME280;64673;52.276;10.560;2023-11-19T02:11:00;99924.22;;;5.95;100.00
75991;BME280;64673;52.276;10.560;2023-11-19T02:13:26;99910.94;;;6.05;100.00
75991;BME280;64673;52.276;10.560;2023-11-19T02:15:52;99905.88;;;6.09;100.00
75991;BME280;64673;52.276;10.560;2023-11-19T02:18:27;99903.53;;;6.17;100.00
75991;BME280;64673;52.276;10.560;2023-11-19T02:20:54;99904.91;;;6.25;100.00
75991;BME280;64673;52.276;10.560;2023-11-19T02:23:20;99902.59;;;6.34;100.00
75991;BME280;64673;52.276;10.560;2023-11-19T02:28:16;99904.03;;;6.51;100.00
75991;BME280;64673;52.276;10.560;2023-11-19T02:30:43;99904.75;;;6.89;100.00
75991;BME280;64673;52.276;10.560;2023-11-19T02:33:08;99894.31;;;6.87;100.00
75991;BME280;64673;52.276;10.560;2023-11-19T02:35:34;99896.75;;;6.94;100.00
75991;BME280;64673;52.276;10.560;2023-11-19T02:37:59;99881.22;;;7.01;100.00
75991;BME280;64673;52.276;10.560;2023-11-19T02:40:25;99885.00;;;7.10;100.00
75991;BME280;64673;52.276;10.560;2023-11-19T02:42:52;99870.00;;;7.04;100.00
75991;BME280;64673;52.276;10.560;2023-11-19T02:45:18;99886.09;;;7.09;100.00
75991;BME280;64673;52.276;10.560;2023-11-19T02:47:44;99882.44;;;7.41;100.00
75991;BME280;64673;52.276;10.560;2023-11-19T02:50:12;99871.19;;;7.49;100.00
75991;BME280;64673;52.276;10.560;2023-11-19T02:52:44;99858.56;;;7.44;100.00
75991;BME280;64673;52.276;10.560;2023-11-19T02:55:11;99855.91;;;7.49;100.00
75991;BME280;64673;52.276;10.560;2023-11-19T02:57:40;99844.34;;;7.49;100.00
75991;BME280;64673;52.276;10.560;2023-11-19T03:00:17;99848.09;;;7.53;100.00
75991;BME280;64673;52.276;10.560;2023-11-19T03:02:43;99848.63;;;7.45;100.00
75991;BME280;64673;52.276;10.560;2023-11-19T03:05:14;99844.59;;;7.42;100.00
75991;BME280;64673;52.276;10.560;2023-11-19T03:07:42;99828.53;;;7.57;100.00
75991;BME280;64673;52.276;10.560;2023-11-19T03:10:11;99825.84;;;7.47;100.00
75991;BME280;64673;52.276;10.560;2023-11-19T03:12:44;99818.34;;;7.49;100.00
75991;BME280;64673;52.276;10.560;2023-11-19T03:15:11;99809.47;;;7.54;100.00
75991;BME280;64673;52.276;10.560;2023-11-19T03:17:40;99792.28;;;7.34;100.00
75991;BME280;64673;52.276;10.560;2023-11-19T03:20:07;99812.16;;;7.49;100.00
75991;BME280;64673;52.276;10.560;2023-11-19T03:22:36;99803.03;;;7.45;100.00
75991;BME280;64673;52.276;10.560;2023-11-19T03:25:01;99793.38;;;7.59;100.00
75991;BME280;64673;52.276;10.560;2023-11-19T03:27:26;99790.16;;;7.62;100.00
75991;BME280;64673;52.276;10.560;2023-11-19T03:29:52;99791.25;;;7.71;100.00
75991;BME280;64673;52.276;10.560;2023-11-19T03:32:17;99771.09;;;7.63;100.00
75991;BME280;64673;52.276;10.560;2023-11-19T03:34:42;99772.44;;;7.71;100.00
75991;BME280;64673;52.276;10.560;2023-11-19T03:37:08;99772.44;;;7.66;100.00
75991;BME280;64673;52.276;10.560;2023-11-19T03:39:34;99770.28;;;7.83;100.00
75991;BME280;64673;52.276;10.560;2023-11-19T03:41:59;99753.91;;;7.80;100.00
75991;BME280;64673;52.276;10.560;2023-11-19T03:44:26;99758.22;;;7.81;100.00
75991;BME280;64673;52.276;10.560;2023-11-19T03:46:52;99756.56;;;7.85;100.00
75991;BME280;64673;52.276;10.560;2023-11-19T03:49:17;99754.69;;;7.90;100.00
75991;BME280;64673;52.276;10.560;2023-11-19T03:51:43;99751.47;;;7.88;100.00
75991;BME280;64673;52.276;10.560;2023-11-19T03:54:08;99758.47;;;7.89;100.00
75991;BME280;64673;52.276;10.560;2023-11-19T03:56:33;99758.75;;;7.83;100.00
75991;BME280;64673;52.276;10.560;2023-11-19T03:58:59;99758.47;;;7.94;100.00
75991;BME280;64673;52.276;10.560;2023-11-19T04:01:24;99754.66;;;8.11;100.00
75991;BME280;64673;52.276;10.560;2023-11-19T04:03:50;99759.19;;;8.20;100.00
75991;BME280;64673;52.276;10.560;2023-11-19T04:06:15;99755.44;;;8.31;100.00
75991;BME280;64673;52.276;10.560;2023-11-19T04:08:40;99746.56;;;8.21;100.00
75991;BME280;64673;52.276;10.560;2023-11-19T04:11:06;99748.19;;;8.17;100.00
75991;BME280;64673;52.276;10.560;2023-11-19T04:13:33;99764.28;;;8.32;100.00
75991;BME280;64673;52.276;10.560;2023-11-19T04:15:58;99737.44;;;8.32;100.00
75991;BME280;64673;52.276;10.560;2023-11-19T04:18:24;99720.19;;;8.38;100.00
75991;BME280;64673;52.276;10.560;2023-11-19T04:20:49;99742.50;;;8.43;100.00
75991;BME280;64673;52.276;10.560;2023-11-19T04:23:16;99733.03;;;8.51;100.00
75991;BME280;64673;52.276;10.560;2023-11-19T04:25:41;99719.13;;;8.39;100.00
75991;BME280;64673;52.276;10.560;2023-11-19T04:28:06;99732.22;;;8.56;100.00
75991;BME280;64673;52.276;10.560;2023-11-19T04:30:31;99741.91;;;8.57;100.00
75991;BME280;64673;52.276;10.560;2023-11-19T04:32:57;99736.81;;;8.50;100.00
75991;BME280;64673;52.276;10.560;2023-11-19T04:35:23;99727.38;;;8.58;100.00
75991;BME280;64673;52.276;10.560;2023-11-19T04:37:48;99744.88;;;8.55;100.00
75991;BME280;64673;52.276;10.560;2023-11-19T04:40:14;99734.06;;;8.65;100.00
75991;BME280;64673;52.276;10.560;2023-11-19T04:42:39;99731.38;;;8.60;100.00
75991;BME280;64673;52.276;10.560;2023-11-19T04:45:06;99739.13;;;8.72;100.00
75991;BME280;64673;52.276;10.560;2023-11-19T04:47:35;99731.38;;;8.60;100.00
75991;BME280;64673;52.276;10.560;2023-11-19T04:50:00;99740.47;;;8.74;100.00
75991;BME280;64673;52.276;10.560;2023-11-19T04:52:25;99743.41;;;8.73;100.00
75991;BME280;64673;52.276;10.560;2023-11-19T04:54:51;99736.38;;;8.82;100.00
75991;BME280;64673;52.276;10.560;2023-11-19T04:57:17;99745.28;;;8.77;100.00
75991;BME280;64673;52.276;10.560;2023-11-19T04:59:42;99738.53;;;8.85;100.00
75991;BME280;64673;52.276;10.560;2023-11-19T05:02:08;99737.72;;;8.85;100.00
75991;BME280;64673;52.276;10.560;2023-11-19T05:04:34;99736.97;;;8.74;100.00
75991;BME280;64673;52.276;10.560;2023-11-19T05:07:00;99722.66;;;8.84;100.00
75991;BME280;64673;52.276;10.560;2023-11-19T05:09:25;99736.38;;;8.87;100.00
75991;BME280;64673;52.276;10.560;2023-11-19T05:11:50;99738.78;;;8.84;100.00
75991;BME280;64673;52.276;10.560;2023-11-19T05:14:16;99740.88;;;8.92;100.00
75991;BME280;64673;52.276;10.560;2023-11-19T05:16:42;99733.91;;;8.91;100.00
75991;BME280;64673;52.276;10.560;2023-11-19T05:19:08;99734.94;;;9.00;100.00
75991;BME280;64673;52.276;10.560;2023-11-19T05:21:34;99737.63;;;9.00;100.00
75991;BME280;64673;52.276;10.560;2023-11-19T05:24:01;99725.00;;;8.95;100.00
75991;BME280;64673;52.276;10.560;2023-11-19T05:26:29;99729.03;;;8.98;100.00
75991;BME280;64673;52.276;10.560;2023-11-19T05:28:55;99730.91;;;8.97;100.00
75991;BME280;64673;52.276;10.560;2023-11-19T05:31:20;99727.38;;;9.02;100.00
75991;BME280;64673;52.276;10.560;2023-11-19T05:33:45;99729.19;;;9.11;100.00
75991;BME280;64673;52.276;10.560;2023-11-19T05:36:11;99719.22;;;9.12;100.00
75991;BME280;64673;52.276;10.560;2023-11-19T05:38:38;99702.28;;;9.11;100.00
75991;BME280;64673;52.276;10.560;2023-11-19T05:41:03;99710.63;;;9.15;100.00
75991;BME280;64673;52.276;10.560;2023-11-19T05:43:29;99707.19;;;9.04;100.00
75991;BME280;64673;52.276;10.560;2023-11-19T05:45:55;99703.22;;;8.97;100.00
75991;BME280;64673;52.276;10.560;2023-11-19T05:48:20;99705.84;;;9.07;100.00
75991;BME280;64673;52.276;10.560;2023-11-19T05:50:46;99696.72;;;9.03;100.00
75991;BME280;64673;52.276;10.560;2023-11-19T05:53:12;99685.00;;;8.89;100.00
75991;BME280;64673;52.276;10.560;2023-11-19T05:55:39;99696.22;;;8.96;100.00
75991;BME280;64673;52.276;10.560;2023-11-19T05:58:12;99686.59;;;8.90;100.00
75991;BME280;64673;52.276;10.560;2023-11-19T06:00:38;99701.34;;;8.97;100.00
75991;BME280;64673;52.276;10.560;2023-11-19T06:03:05;99700.06;;;8.85;100.00
75991;BME280;64673;52.276;10.560;2023-11-19T06:05:31;99704.69;;;8.79;100.00
75991;BME280;64673;52.276;10.560;2023-11-19T06:07:56;99698.72;;;8.87;100.00
75991;BME280;64673;52.276;10.560;2023-11-19T06:10:22;99699.53;;;8.88;100.00
75991;BME280;64673;52.276;10.560;2023-11-19T06:12:49;99702.22;;;8.82;100.00
75991;BME280;64673;52.276;10.560;2023-11-19T06:15:21;99707.25;;;8.94;100.00
75991;BME280;64673;52.276;10.560;2023-11-19T06:17:46;99696.31;;;8.86;100.00
75991;BME280;64673;52.276;10.560;2023-11-19T06:20:11;99695.69;;;8.99;100.00
75991;BME280;64673;52.276;10.560;2023-11-19T06:22:37;99694.09;;;8.93;100.00
75991;BME280;64673;52.276;10.560;2023-11-19T06:25:02;99685.13;;;9.07;100.00
75991;BME280;64673;52.276;10.560;2023-11-19T06:27:32;99699.03;;;9.14;100.00
75991;BME280;64673;52.276;10.560;2023-11-19T06:29:57;99699.13;;;9.04;100.00
75991;BME280;64673;52.276;10.560;2023-11-19T06:32:23;99701.19;;;9.17;100.00
75991;BME280;64673;52.276;10.560;2023-11-19T06:34:48;99698.78;;;9.16;100.00
75991;BME280;64673;52.276;10.560;2023-11-19T06:37:13;99695.44;;;9.29;100.00
75991;BME280;64673;52.276;10.560;2023-11-19T06:39:39;99693.06;;;9.23;100.00
75991;BME280;64673;52.276;10.560;2023-11-19T06:42:04;99691.50;;;9.16;100.00
75991;BME280;64673;52.276;10.560;2023-11-19T06:44:29;99700.63;;;9.21;100.00
75991;BME280;64673;52.276;10.560;2023-11-19T06:46:55;99700.56;;;9.26;100.00
75991;BME280;64673;52.276;10.560;2023-11-19T06:49:20;99713.50;;;9.24;100.00
75991;BME280;64673;52.276;10.560;2023-11-19T06:51:45;99718.59;;;9.30;100.00
75991;BME280;64673;52.276;10.560;2023-11-19T06:54:11;99729.00;;;9.37;100.00
75991;BME280;64673;52.276;10.560;2023-11-19T06:56:36;99723.28;;;9.43;100.00
75991;BME280;64673;52.276;10.560;2023-11-19T06:59:02;99701.75;;;9.43;100.00
75991;BME280;64673;52.276;10.560;2023-11-19T07:01:27;99711.44;;;9.44;100.00
75991;BME280;64673;52.276;10.560;2023-11-19T07:03:52;99717.59;;;9.50;100.00
75991;BME280;64673;52.276;10.560;2023-11-19T07:06:18;99699.03;;;9.48;100.00
75991;BME280;64673;52.276;10.560;2023-11-19T07:08:44;99721.13;;;9.45;100.00
75991;BME280;64673;52.276;10.560;2023-11-19T07:11:13;99718.63;;;9.54;100.00
75991;BME280;64673;52.276;10.560;2023-11-19T07:13:40;99724.34;;;9.47;100.00
75991;BME280;64673;52.276;10.560;2023-11-19T07:16:07;99742.09;;;9.48;100.00
75991;BME280;64673;52.276;10.560;2023-11-19T07:18:35;99731.16;;;9.40;100.00
75991;BME280;64673;52.276;10.560;2023-11-19T07:21:01;99728.19;;;9.36;100.00
75991;BME280;64673;52.276;10.560;2023-11-19T07:23:26;99736.16;;;9.51;100.00
75991;BME280;64673;52.276;10.560;2023-11-19T07:25:51;99747.75;;;9.52;100.00
75991;BME280;64673;52.276;10.560;2023-11-19T07:28:18;99728.44;;;9.40;100.00
75991;BME280;64673;52.276;10.560;2023-11-19T07:30:43;99733.03;;;9.39;100.00
75991;BME280;64673;52.276;10.560;2023-11-19T07:33:08;99737.56;;;9.44;100.00
75991;BME280;64673;52.276;10.560;2023-11-19T07:35:34;99744.34;;;9.36;100.00
75991;BME280;64673;52.276;10.560;2023-11-19T07:37:59;99734.31;;;9.47;100.00
75991;BME280;64673;52.276;10.560;2023-11-19T07:40:24;99739.88;;;9.55;100.00
75991;BME280;64673;52.276;10.560;2023-11-19T07:42:50;99731.88;;;9.50;100.00
75991;BME280;64673;52.276;10.560;2023-11-19T07:45:16;99737.78;;;9.52;100.00
75991;BME280;64673;52.276;10.560;2023-11-19T07:47:41;99734.22;;;9.57;100.00
75991;BME280;64673;52.276;10.560;2023-11-19T07:50:09;99735.50;;;9.65;100.00
75991;BME280;64673;52.276;10.560;2023-11-19T07:52:34;99734.91;;;9.73;100.00
75991;BME280;64673;52.276;10.560;2023-11-19T07:55:00;99734.91;;;9.73;100.00
75991;BME280;64673;52.276;10.560;2023-11-19T07:57:25;99751.00;;;9.78;100.00
75991;BME280;64673;52.276;10.560;2023-11-19T07:59:52;99746.31;;;9.88;100.00
75991;BME280;64673;52.276;10.560;2023-11-19T08:02:19;99763.28;;;9.89;100.00
75991;BME280;64673;52.276;10.560;2023-11-19T08:04:45;99764.78;;;10.00;100.00
75991;BME280;64673;52.276;10.560;2023-11-19T08:07:11;99760.16;;;10.06;100.00
75991;BME280;64673;52.276;10.560;2023-11-19T08:09:36;99763.13;;;10.04;100.00
75991;BME280;64673;52.276;10.560;2023-11-19T08:12:03;99763.31;;;10.13;100.00
75991;BME280;64673;52.276;10.560;2023-11-19T08:14:28;99769.50;;;10.13;100.00
75991;BME280;64673;52.276;10.560;2023-11-19T08:16:54;99772.03;;;10.28;100.00
75991;BME280;64673;52.276;10.560;2023-11-19T08:19:19;99761.06;;;10.25;100.00
75991;BME280;64673;52.276;10.560;2023-11-19T08:21:44;99756.91;;;10.33;100.00
75991;BME280;64673;52.276;10.560;2023-11-19T08:24:09;99764.25;;;10.51;100.00
75991;BME280;64673;52.276;10.560;2023-11-19T08:26:35;99768.38;;;10.67;99.72
75991;BME280;64673;52.276;10.560;2023-11-19T08:29:00;99768.16;;;10.82;98.01
75991;BME280;64673;52.276;10.560;2023-11-19T08:31:26;99767.06;;;10.83;98.41
75991;BME280;64673;52.276;10.560;2023-11-19T08:33:51;99763.72;;;10.91;97.91
75991;BME280;64673;52.276;10.560;2023-11-19T08:36:16;99763.00;;;11.05;95.62
75991;BME280;64673;52.276;10.560;2023-11-19T08:38:42;99757.16;;;10.97;96.13
75991;BME280;64673;52.276;10.560;2023-11-19T08:41:07;99732.59;;;10.99;94.22
75991;BME280;64673;52.276;10.560;2023-11-19T08:43:33;99761.25;;;11.14;94.32
75991;BME280;64673;52.276;10.560;2023-11-19T08:45:58;99775.31;;;11.29;93.02
75991;BME280;64673;52.276;10.560;2023-11-19T08:48:23;99778.97;;;11.38;92.58
75991;BME280;64673;52.276;10.560;2023-11-19T08:50:49;99779.66;;;11.44;92.59
75991;BME280;64673;52.276;10.560;2023-11-19T08:53:15;99776.78;;;11.41;92.09
75991;BME280;64673;52.276;10.560;2023-11-19T08:55:40;99787.69;;;11.49;90.26
75991;BME280;64673;52.276;10.560;2023-11-19T08:58:05;99779.53;;;11.54;90.93
75991;BME280;64673;52.276;10.560;2023-11-19T09:00:31;99775.66;;;11.60;91.26
75991;BME280;64673;52.276;10.560;2023-11-19T09:02:57;99782.06;;;11.64;89.91
75991;BME280;64673;52.276;10.560;2023-11-19T09:05:23;99787.84;;;11.58;90.37
75991;BME280;64673;52.276;10.560;2023-11-19T09:07:48;99798.91;;;11.56;89.63
75991;BME280;64673;52.276;10.560;2023-11-19T09:10:15;99802.81;;;11.50;90.62
75991;BME280;64673;52.276;10.560;2023-11-19T09:12:40;99803.22;;;11.57;89.04
75991;BME280;64673;52.276;10.560;2023-11-19T09:15:05;99792.44;;;11.57;89.50
75991;BME280;64673;52.276;10.560;2023-11-19T09:17:31;99793.63;;;11.51;88.86
75991;BME280;64673;52.276;10.560;2023-11-19T09:19:57;99800.00;;;11.55;88.10
75991;BME280;64673;52.276;10.560;2023-11-19T09:22:22;99813.84;;;11.54;88.74
75991;BME280;64673;52.276;10.560;2023-11-19T09:24:47;99811.84;;;11.59;88.20
75991;BME280;64673;52.276;10.560;2023-11-19T09:27:13;99816.22;;;11.55;88.19
75991;BME280;64673;52.276;10.560;2023-11-19T09:29:38;99805.81;;;11.49;89.14
75991;BME280;64673;52.276;10.560;2023-11-19T09:32:04;99810.09;;;11.50;88.10
75991;BME280;64673;52.276;10.560;2023-11-19T09:34:29;99815.78;;;11.48;87.46
75991;BME280;64673;52.276;10.560;2023-11-19T09:36:55;99823.84;;;11.53;87.23
75991;BME280;64673;52.276;10.560;2023-11-19T09:39:20;99822.00;;;11.49;87.39
75991;BME280;64673;52.276;10.560;2023-11-19T09:41:46;99822.22;;;11.52;87.37
75991;BME280;64673;52.276;10.560;2023-11-19T09:44:12;99825.94;;;11.56;87.85
75991;BME280;64673;52.276;10.560;2023-11-19T09:46:41;99825.00;;;11.47;87.37
75991;BME280;64673;52.276;10.560;2023-11-19T09:49:08;99841.84;;;11.58;86.81
75991;BME280;64673;52.276;10.560;2023-11-19T09:51:34;99831.16;;;11.66;86.49
75991;BME280;64673;52.276;10.560;2023-11-19T09:53:59;99830.59;;;11.69;86.11
75991;BME280;64673;52.276;10.560;2023-11-19T09:56:26;99831.56;;;11.79;86.08
75991;BME280;64673;52.276;10.560;2023-11-19T09:58:53;99842.19;;;11.70;85.84
75991;BME280;64673;52.276;10.560;2023-11-19T10:01:18;99836.16;;;11.78;84.75
75991;BME280;64673;52.276;10.560;2023-11-19T10:03:47;99838.22;;;12.00;85.05
75991;BME280;64673;52.276;10.560;2023-11-19T10:06:14;99831.03;;;12.09;84.52
75991;BME280;64673;52.276;10.560;2023-11-19T10:08:41;99825.22;;;12.02;84.49
75991;BME280;64673;52.276;10.560;2023-11-19T10:11:07;99817.69;;;11.99;86.06
75991;BME280;64673;52.276;10.560;2023-11-19T10:13:35;99830.03;;;12.05;84.70
75991;BME280;64673;52.276;10.560;2023-11-19T10:16:10;99819.97;;;12.24;85.65
75991;BME280;64673;52.276;10.560;2023-11-19T10:18:37;99850.31;;;12.35;84.36
75991;BME280;64673;52.276;10.560;2023-11-19T10:21:06;99832.28;;;12.30;84.90
75991;BME280;64673;52.276;10.560;2023-11-19T10:23:31;99824.78;;;12.27;85.04
75991;BME280;64673;52.276;10.560;2023-11-19T10:26:12;99821.88;;;12.37;83.94
75991;BME280;64673;52.276;10.560;2023-11-19T10:28:39;99822.88;;;12.41;83.53
75991;BME280;64673;52.276;10.560;2023-11-19T10:31:05;99811.75;;;12.43;83.97
75991;BME280;64673;52.276;10.560;2023-11-19T10:33:30;99827.00;;;12.53;82.52
75991;BME280;64673;52.276;10.560;2023-11-19T10:35:57;99829.59;;;12.44;82.20
75991;BME280;64673;52.276;10.560;2023-11-19T10:38:23;99816.38;;;12.29;82.73
75991;BME280;64673;52.276;10.560;2023-11-19T10:40:50;99829.50;;;12.35;83.61
75991;BME280;64673;52.276;10.560;2023-11-19T10:43:19;99831.06;;;12.23;83.14
75991;BME280;64673;52.276;10.560;2023-11-19T10:45:45;99835.06;;;12.12;82.79
75991;BME280;64673;52.276;10.560;2023-11-19T10:48:10;99818.53;;;12.13;84.03
75991;BME280;64673;52.276;10.560;2023-11-19T10:50:38;99816.75;;;12.22;83.72
75991;BME280;64673;52.276;10.560;2023-11-19T10:53:05;99810.84;;;12.20;82.98
75991;BME280;64673;52.276;10.560;2023-11-19T10:55:35;99812.88;;;12.42;82.79
75991;BME280;64673;52.276;10.560;2023-11-19T10:58:04;99797.03;;;12.35;82.08
75991;BME280;64673;52.276;10.560;2023-11-19T11:00:36;99816.28;;;12.34;82.38
75991;BME280;64673;52.276;10.560;2023-11-19T11:03:08;99809.34;;;12.41;82.30
75991;BME280;64673;52.276;10.560;2023-11-19T11:05:37;99806.97;;;12.67;81.27
75991;BME280;64673;52.276;10.560;2023-11-19T11:08:04;99802.88;;;12.70;79.78
75991;BME280;64673;52.276;10.560;2023-11-19T11:10:32;99796.81;;;12.73;79.63
75991;BME280;64673;52.276;10.560;2023-11-19T11:13:03;99805.66;;;12.65;79.37
75991;BME280;64673;52.276;10.560;2023-11-19T11:15:30;99810.69;;;12.58;79.40
75991;BME280;64673;52.276;10.560;2023-11-19T11:18:00;99774.00;;;12.65;80.59
75991;BME280;64673;52.276;10.560;2023-11-19T11:20:28;99806.38;;;12.57;78.56
75991;BME280;64673;52.276;10.560;2023-11-19T11:23:21;99806.44;;;12.52;79.48
75991;BME280;64673;52.276;10.560;2023-11-19T11:26:00;99811.47;;;12.44;78.83
75991;BME280;64673;52.276;10.560;2023-11-19T11:28:48;99795.03;;;12.41;79.74
75991;BME280;64673;52.276;10.560;2023-11-19T11:39:33;99808.44;;;12.32;81.19
75991;BME280;64673;52.276;10.560;2023-11-19T11:45:07;99842.47;;;12.20;80.84
75991;BME280;64673;52.276;10.560;2023-11-19T11:50:09;99824.09;;;12.35;81.28
75991;BME280;64673;52.276;10.560;2023-11-19T11:55:28;99804.25;;;12.26;81.48
75991;BME280;64673;52.276;10.560;2023-11-19T11:57:58;99823.56;;;12.33;81.57
75991;BME280;64673;52.276;10.560;2023-11-19T12:02:56;99813.47;;;12.39;81.24
75991;BME280;64673;52.276;10.560;2023-11-19T12:05:24;99810.44;;;12.40;80.96
75991;BME280;64673;52.276;10.560;2023-11-19T12:08:00;99819.38;;;12.41;81.52
75991;BME280;64673;52.276;10.560;2023-11-19T12:10:29;99804.44;;;12.43;80.93
75991;BME280;64673;52.276;10.560;2023-11-19T12:13:00;99817.38;;;12.46;81.32
75991;BME280;64673;52.276;10.560;2023-11-19T12:15:26;99814.16;;;12.44;80.78
75991;BME280;64673;52.276;10.560;2023-11-19T12:17:53;99801.56;;;12.54;80.38
75991;BME280;64673;52.276;10.560;2023-11-19T12:20:20;99805.34;;;12.66;80.31
75991;BME280;64673;52.276;10.560;2023-11-19T12:22:47;99800.16;;;12.70;80.91
75991;BME280;64673;52.276;10.560;2023-11-19T12:25:15;99804.56;;;12.66;81.00
75991;BME280;64673;52.276;10.560;2023-11-19T12:27:46;99805.06;;;12.54;80.00
75991;BME280;64673;52.276;10.560;2023-11-19T12:30:12;99796.03;;;12.45;79.33
75991;BME280;64673;52.276;10.560;2023-11-19T12:32:45;99799.94;;;12.53;79.49
75991;BME280;64673;52.276;10.560;2023-11-19T12:35:11;99802.06;;;12.56;79.21
75991;BME280;64673;52.276;10.560;2023-11-19T12:37:47;99802.28;;;12.59;79.57
75991;BME280;64673;52.276;10.560;2023-11-19T12:40:20;99797.25;;;12.53;79.01
75991;BME280;64673;52.276;10.560;2023-11-19T12:42:50;99808.69;;;12.50;80.12
75991;BME280;64673;52.276;10.560;2023-11-19T12:45:16;99808.06;;;12.39;79.38
75991;BME280;64673;52.276;10.560;2023-11-19T12:47:43;99807.28;;;12.38;79.54
75991;BME280;64673;52.276;10.560;2023-11-19T12:50:09;99798.03;;;12.53;80.15
75991;BME280;64673;52.276;10.560;2023-11-19T12:52:36;99803.75;;;12.52;79.40
75991;BME280;64673;52.276;10.560;2023-11-19T12:55:03;99807.38;;;12.47;78.73
75991;BME280;64673;52.276;10.560;2023-11-19T12:57:42;99814.69;;;12.46;78.35
75991;BME280;64673;52.276;10.560;2023-11-19T13:00:18;99796.84;;;12.45;78.17
75991;BME280;64673;52.276;10.560;2023-11-19T13:02:46;99803.06;;;12.60;78.44
75991;BME280;64673;52.276;10.560;2023-11-19T13:05:31;99811.38;;;12.50;77.69
75991;BME280;64673;52.276;10.560;2023-11-19T13:08:09;99816.88;;;12.44;78.37